createdAt,value
2022-10-01T00:00:49.079Z,78
2022-10-01T00:10:49.279Z,78
2022-10-01T00:20:49.814Z,78
2022-10-01T00:30:50.582Z,78
2022-10-01T00:40:50.980Z,83
2022-10-01T00:50:51.419Z,89
2022-10-01T01:00:52.292Z,93
2022-10-01T01:20:54.096Z,98
2022-10-01T01:40:55.427Z,100
2022-10-01T02:31:00.141Z,100
2022-10-01T02:51:01.204Z,100
2022-10-01T03:01:01.766Z,100
2022-10-01T03:21:02.599Z,100
2022-10-01T03:51:04.457Z,100
2022-10-01T04:31:07.513Z,100
2022-10-01T04:41:08.191Z,100
2022-10-01T05:31:11.475Z,100
2022-10-01T05:41:12.292Z,100
2022-10-01T05:51:13.255Z,100
2022-10-01T06:01:13.480Z,100
2022-10-01T06:21:15.011Z,100
2022-10-01T06:31:15.353Z,100
2022-10-01T06:41:15.567Z,100
2022-10-01T06:51:16.354Z,100
2022-10-01T07:01:16.560Z,100
2022-10-01T07:11:17.383Z,100
2022-10-01T07:21:18.003Z,100
2022-10-01T07:31:19.046Z,100
2022-10-01T07:41:19.592Z,100
2022-10-01T08:01:20.607Z,100
2022-10-01T08:11:21.245Z,100
2022-10-01T08:21:22.056Z,100
2022-10-01T08:41:23.533Z,100
2022-10-01T08:51:23.696Z,100
2022-10-01T09:01:24.697Z,100
2022-10-01T09:11:25.312Z,100
2022-10-01T09:21:26.151Z,100
2022-10-01T09:31:26.384Z,100
2022-10-01T09:41:26.525Z,100
2022-10-01T09:51:26.654Z,100
2022-10-01T10:11:27.998Z,100
2022-10-01T10:21:28.712Z,100
2022-10-01T10:31:29.937Z,100
2022-10-01T10:41:30.745Z,97
2022-10-01T11:01:31.371Z,95
2022-10-01T11:11:31.412Z,93
2022-10-01T11:21:31.794Z,97
2022-10-01T11:31:32.641Z,100
2022-10-01T12:01:34.798Z,100
2022-10-01T12:11:35.015Z,100
2022-10-01T13:01:38.285Z,99
2022-10-01T13:11:38.473Z,99
2022-10-01T13:21:38.984Z,89
2022-10-01T13:31:39.922Z,89
2022-10-01T13:41:40.939Z,90
2022-10-01T13:51:41.386Z,85
2022-10-01T14:01:42.314Z,82
2022-10-01T14:11:42.883Z,80
2022-10-01T14:21:43.434Z,83
2022-10-01T15:21:46.039Z,80
2022-10-01T16:21:51.226Z,78
2022-10-01T17:01:52.851Z,85
2022-10-01T17:41:54.805Z,87
2022-10-01T18:11:55.666Z,88
2022-10-01T18:21:55.868Z,90
2022-10-01T18:41:56.639Z,92
2022-10-01T18:51:57.651Z,92
2022-10-01T19:01:58.658Z,93
2022-10-01T19:11:59.587Z,94
2022-10-01T19:22:00.553Z,94
2022-10-01T19:32:01.724Z,94
2022-10-01T19:52:02.892Z,95
2022-10-01T20:12:03.821Z,95
2022-10-01T20:22:04.290Z,96
2022-10-01T20:32:04.456Z,96
2022-10-01T20:42:04.946Z,97
2022-10-01T20:52:06.075Z,96
2022-10-01T21:02:06.601Z,96
2022-10-01T21:12:07.419Z,97
2022-10-01T21:32:08.532Z,98
2022-10-01T22:02:10.798Z,98
2022-10-01T22:12:10.864Z,99
2022-10-01T22:22:11.832Z,100
2022-10-01T22:32:12.231Z,100
2022-10-01T22:52:13.736Z,100
2022-10-01T23:02:14.480Z,100
2022-10-01T23:22:16.033Z,100
2022-10-01T23:32:16.481Z,100
2022-10-01T23:42:16.876Z,100
2022-10-01T23:52:17.739Z,100
